Megan T Miller — WCW9003 — position and weather

sailwx.info

Track history (hours):
 
Tides and Currents Weather Stations Pressure Air Temp Water Temp Dewpoint Dewpoint Depression Visibility Wind Speed Wind Dir Waves Ship Positions

Megan T Miller

Owner: MILLER MARINE SERVICES INC, PORT JEFFERSON, NY. More information available from US FCC via Universal Licensing System and Coast Guard Vessel Documentation Center.

Last reported at 2015-Mar-01 14:22 UTC. Time now 2015-Mar-02 20:34 UTC.
Position N 41°18' W 072°54'.

Length 18 m.

MMSI: 338104509.

Date/timePositionNaut miles runAvg speedWind from/ knotsBaromVisibWave heightAir tempDewpointWater temp
2015-Mar-01 14:22N 41°18' W 072°54'4 4.7
2015-Mar-01 13:32N 41°14' W 072°55'0 0.3
2015-Mar-01 12:33N 41°14' W 072°55'0 0.0
2015-Feb-28 17:15N 41°14' W 072°55'14 8.5
2015-Feb-28 15:33N 41°01' W 073°04'9 9.2
2015-Feb-28 14:33N 41°08' W 072°57'4 3.8
2015-Feb-28 13:34N 41°12' W 072°54'0 0.4
2015-Feb-28 12:33N 41°12' W 072°54'6 5.5
2015-Feb-28 11:32N 41°18' W 072°55'1 0.7
2015-Feb-28 10:23N 41°18' W 072°54'7 0.3
2015-Feb-27 11:31N 41°12' W 072°51'7 6.8
2015-Feb-27 10:28N 41°18' W 072°54'0 0.0
2015-Feb-27 09:19N 41°18' W 072°54'0 0.0
2015-Feb-27 08:31N 41°18' W 072°54'0 0.0
2015-Feb-27 07:15N 41°18' W 072°54'0 0.0
2015-Feb-27 06:19N 41°18' W 072°54'0 0.0
2015-Feb-27 05:30N 41°18' W 072°54'0 0.0
2015-Feb-27 04:31N 41°18' W 072°54'0 0.0
2015-Feb-27 03:24N 41°18' W 072°54'0 0.0
2015-Feb-27 00:33N 41°18' W 072°54'0 0.0
2015-Feb-26 23:19N 41°18' W 072°54'0 0.0
2015-Feb-26 17:06N 41°18' W 072°54'0 0.0
2015-Feb-26 12:26N 41°18' W 072°54'0 0.0
2015-Feb-26 01:26N 41°18' W 072°54'0 0.0
2015-Feb-25 17:09N 41°18' W 072°54'0 0.1
2015-Feb-25 13:07N 41°18' W 072°54'0 0.0
2015-Feb-25 11:13N 41°18' W 072°54'0 0.0
2015-Feb-25 10:20N 41°18' W 072°54'0 0.0
2015-Feb-25 09:26N 41°18' W 072°54'0 0.0
2015-Feb-25 08:32N 41°18' W 072°54'0 0.0
2015-Feb-25 07:26N 41°18' W 072°54'0 0.0
2015-Feb-25 04:08N 41°18' W 072°54'0 0.0
2015-Feb-25 00:33N 41°18' W 072°54'0 0.0
2015-Feb-24 18:29N 41°18' W 072°54'49 3.0
2015-Feb-24 02:05N 40°49' W 073°47'2 2.7
2015-Feb-24 01:13N 40°48' W 073°50'6 8.4
2015-Feb-24 00:29N 40°46' W 073°57'7 7.3
2015-Feb-23 23:33N 40°40' W 074°02'4 1.5
2015-Feb-23 21:14N 40°39' W 074°07'2 2.8
2015-Feb-23 20:33N 40°38' W 074°04'3 3.4
2015-Feb-23 19:32N 40°35' W 074°02'10 1.1
2015-Feb-23 10:28N 40°25' W 074°02'0 0.0
2015-Feb-23 09:28N 40°25' W 074°02'0 0.0
2015-Feb-23 08:31N 40°25' W 074°02'0 0.0
2015-Feb-23 07:14N 40°25' W 074°02'0 0.0
2015-Feb-23 05:25N 40°25' W 074°02'0 0.0
2015-Feb-23 03:28N 40°25' W 074°02'0 0.0
2015-Feb-23 02:33N 40°25' W 074°02'0 0.0
2015-Feb-22 22:16N 40°25' W 074°02'0 0.0
2015-Feb-22 18:20N 40°25' W 074°02'0 0.0
2015-Feb-21 17:08N 40°25' W 074°02'0 0.0
2015-Feb-21 05:08N 40°25' W 074°02'0 0.0
2015-Feb-21 03:28N 40°25' W 074°02'0 0.0
2015-Feb-21 02:23N 40°25' W 074°02'0 0.0
2015-Feb-21 00:30N 40°25' W 074°02'0 0.0
2015-Feb-20 23:06N 40°25' W 074°02'0 0.0
2015-Feb-20 05:10N 40°25' W 074°02'0 0.0
2015-Feb-19 21:09N 40°25' W 074°02'  
Track history (hours):
 
Tides and Currents Weather Stations Pressure Air Temp Water Temp Dewpoint Dewpoint Depression Visibility Wind Speed Wind Dir Waves Ship Positions

Megan T Miller

Owner: MILLER MARINE SERVICES INC, PORT JEFFERSON, NY. More information available from US FCC via Universal Licensing System and Coast Guard Vessel Documentation Center.

Last reported at 2015-Mar-01 14:22 UTC. Time now 2015-Mar-02 20:34 UTC.
Position N 41°18' W 072°54'.

Length 18 m.

MMSI: 338104509.

Date/timePositionNaut miles runAvg speedWind from/ knotsBaromVisibWave heightAir tempDewpointWater temp
2015-Mar-01 14:22N 41°18' W 072°54'4 4.7
2015-Mar-01 13:32N 41°14' W 072°55'0 0.3
2015-Mar-01 12:33N 41°14' W 072°55'0 0.0
2015-Feb-28 17:15N 41°14' W 072°55'14 8.5
2015-Feb-28 15:33N 41°01' W 073°04'9 9.2
2015-Feb-28 14:33N 41°08' W 072°57'4 3.8
2015-Feb-28 13:34N 41°12' W 072°54'0 0.4
2015-Feb-28 12:33N 41°12' W 072°54'6 5.5
2015-Feb-28 11:32N 41°18' W 072°55'1 0.7
2015-Feb-28 10:23N 41°18' W 072°54'7 0.3
2015-Feb-27 11:31N 41°12' W 072°51'7 6.8
2015-Feb-27 10:28N 41°18' W 072°54'0 0.0
2015-Feb-27 09:19N 41°18' W 072°54'0 0.0
2015-Feb-27 08:31N 41°18' W 072°54'0 0.0
2015-Feb-27 07:15N 41°18' W 072°54'0 0.0
2015-Feb-27 06:19N 41°18' W 072°54'0 0.0
2015-Feb-27 05:30N 41°18' W 072°54'0 0.0
2015-Feb-27 04:31N 41°18' W 072°54'0 0.0
2015-Feb-27 03:24N 41°18' W 072°54'0 0.0
2015-Feb-27 00:33N 41°18' W 072°54'0 0.0
2015-Feb-26 23:19N 41°18' W 072°54'0 0.0
2015-Feb-26 17:06N 41°18' W 072°54'0 0.0
2015-Feb-26 12:26N 41°18' W 072°54'0 0.0
2015-Feb-26 01:26N 41°18' W 072°54'0 0.0
2015-Feb-25 17:09N 41°18' W 072°54'0 0.1
2015-Feb-25 13:07N 41°18' W 072°54'0 0.0
2015-Feb-25 11:13N 41°18' W 072°54'0 0.0
2015-Feb-25 10:20N 41°18' W 072°54'0 0.0
2015-Feb-25 09:26N 41°18' W 072°54'0 0.0
2015-Feb-25 08:32N 41°18' W 072°54'0 0.0
2015-Feb-25 07:26N 41°18' W 072°54'0 0.0
2015-Feb-25 04:08N 41°18' W 072°54'0 0.0
2015-Feb-25 00:33N 41°18' W 072°54'0 0.0
2015-Feb-24 18:29N 41°18' W 072°54'49 3.0
2015-Feb-24 02:05N 40°49' W 073°47'2 2.7
2015-Feb-24 01:13N 40°48' W 073°50'6 8.4
2015-Feb-24 00:29N 40°46' W 073°57'7 7.3
2015-Feb-23 23:33N 40°40' W 074°02'4 1.5
2015-Feb-23 21:14N 40°39' W 074°07'2 2.8
2015-Feb-23 20:33N 40°38' W 074°04'3 3.4
2015-Feb-23 19:32N 40°35' W 074°02'10 1.1
2015-Feb-23 10:28N 40°25' W 074°02'0 0.0
2015-Feb-23 09:28N 40°25' W 074°02'0 0.0
2015-Feb-23 08:31N 40°25' W 074°02'0 0.0
2015-Feb-23 07:14N 40°25' W 074°02'0 0.0
2015-Feb-23 05:25N 40°25' W 074°02'0 0.0
2015-Feb-23 03:28N 40°25' W 074°02'0 0.0
2015-Feb-23 02:33N 40°25' W 074°02'0 0.0
2015-Feb-22 22:16N 40°25' W 074°02'0 0.0
2015-Feb-22 18:20N 40°25' W 074°02'0 0.0
2015-Feb-21 17:08N 40°25' W 074°02'0 0.0
2015-Feb-21 05:08N 40°25' W 074°02'0 0.0
2015-Feb-21 03:28N 40°25' W 074°02'0 0.0
2015-Feb-21 02:23N 40°25' W 074°02'0 0.0
2015-Feb-21 00:30N 40°25' W 074°02'0 0.0
2015-Feb-20 23:06N 40°25' W 074°02'0 0.0
2015-Feb-20 05:10N 40°25' W 074°02'0 0.0
2015-Feb-19 21:09N 40°25' W 074°02'  

Dump ship's entire track history